createdAt,value
2018-09-01T00:00:57.721Z,67.92
2018-09-01T00:03:24.880Z,67.96
2018-09-01T00:05:52.114Z,68.02
2018-09-01T00:08:20.309Z,67.50
2018-09-01T00:10:47.446Z,67.94
2018-09-01T00:13:14.603Z,67.36
2018-09-01T00:15:41.704Z,67.60
2018-09-01T00:18:08.825Z,67.52
2018-09-01T00:20:35.938Z,68.13
2018-09-01T00:23:03.133Z,69.08
2018-09-01T00:25:30.251Z,70.03
2018-09-01T00:27:57.374Z,70.38
2018-09-01T00:30:24.549Z,69.37
2018-09-01T00:32:51.657Z,69.44
2018-09-01T00:35:18.765Z,68.79
2018-09-01T00:37:51.457Z,69.68
2018-09-01T00:40:18.633Z,69.10
2018-09-01T00:42:45.744Z,69.07
2018-09-01T00:45:12.894Z,69.32
2018-09-01T00:47:40.053Z,68.89
2018-09-01T00:50:07.210Z,69.52
2018-09-01T00:52:34.376Z,69.48
2018-09-01T00:55:01.557Z,69.57
2018-09-01T00:57:28.656Z,69.83
2018-09-01T00:59:55.851Z,70.07
2018-09-01T01:02:22.988Z,70.09
2018-09-01T01:04:50.218Z,69.64
2018-09-01T01:07:17.706Z,69.56
2018-09-01T01:09:45.182Z,70.00
2018-09-01T01:12:12.575Z,69.60
2018-09-01T01:14:39.733Z,69.52
2018-09-01T01:17:06.931Z,69.91
2018-09-01T01:19:34.030Z,69.03
2018-09-01T01:22:01.201Z,68.13
2018-09-01T01:24:28.322Z,69.56
2018-09-01T01:26:55.940Z,70.60
2018-09-01T01:29:24.169Z,70.79
2018-09-01T01:31:51.687Z,70.70
2018-09-01T01:34:18.781Z,71.10
2018-09-01T01:36:45.922Z,70.80
2018-09-01T01:39:13.056Z,70.55
2018-09-01T01:41:40.188Z,71.13
2018-09-01T01:44:07.330Z,70.96
2018-09-01T01:46:34.488Z,70.89
2018-09-01T01:49:01.591Z,70.66
2018-09-01T01:51:28.706Z,70.15
2018-09-01T01:53:55.850Z,69.58
2018-09-01T01:56:23.001Z,70.26
2018-09-01T01:58:50.170Z,69.69
2018-09-01T02:01:17.302Z,69.48
2018-09-01T02:03:44.497Z,68.75
2018-09-01T02:06:11.621Z,69.26
2018-09-01T02:08:39.212Z,69.26
2018-09-01T02:11:06.336Z,69.62
2018-09-01T02:13:33.489Z,69.37
2018-09-01T02:16:00.770Z,70.09
2018-09-01T02:18:27.904Z,70.12
2018-09-01T02:20:54.999Z,69.68
2018-09-01T02:23:22.170Z,69.56
2018-09-01T02:25:49.307Z,70.55
2018-09-01T02:28:16.445Z,69.80
2018-09-01T02:30:43.586Z,70.74
2018-09-01T02:33:11.019Z,70.72
2018-09-01T02:35:38.135Z,71.06
2018-09-01T02:38:05.254Z,70.90
2018-09-01T02:40:32.401Z,71.02
2018-09-01T02:42:59.502Z,70.73
2018-09-01T02:45:26.639Z,70.94
2018-09-01T02:47:53.756Z,70.95
2018-09-01T02:50:20.907Z,71.37
2018-09-01T02:52:48.034Z,70.66
2018-09-01T02:55:15.194Z,71.06
2018-09-01T02:57:42.299Z,71.14
2018-09-01T03:00:15.076Z,70.80
2018-09-01T03:02:43.580Z,71.47
2018-09-01T03:05:11.320Z,71.17
2018-09-01T03:07:38.418Z,70.63
2018-09-01T03:10:05.629Z,71.25
2018-09-01T03:12:32.743Z,71.19
2018-09-01T03:14:59.877Z,71.11
2018-09-01T03:17:26.992Z,71.16
2018-09-01T03:19:54.142Z,71.07
2018-09-01T03:22:21.256Z,71.76
2018-09-01T03:24:48.422Z,71.28
2018-09-01T03:27:15.550Z,70.81
2018-09-01T03:29:42.677Z,70.83
2018-09-01T03:32:09.815Z,70.13
2018-09-01T03:34:36.900Z,70.70
2018-09-01T03:37:04.134Z,70.38
2018-09-01T03:39:31.321Z,70.53
2018-09-01T03:41:58.472Z,70.83
2018-09-01T03:44:25.576Z,70.37
2018-09-01T03:46:52.714Z,70.65
2018-09-01T03:49:19.865Z,70.16
2018-09-01T03:51:47.025Z,70.58
2018-09-01T03:54:14.169Z,71.28
2018-09-01T03:56:41.301Z,70.33
2018-09-01T03:59:08.465Z,70.24
2018-09-01T04:01:35.618Z,70.71
2018-09-01T04:04:02.726Z,70.54
2018-09-01T04:06:29.853Z,71.03
2018-09-01T04:08:57.005Z,71.35
2018-09-01T04:11:24.197Z,71.30
2018-09-01T04:13:51.317Z,72.58
2018-09-01T04:16:18.439Z,72.63
2018-09-01T04:18:45.572Z,71.89
2018-09-01T04:21:12.701Z,72.77
2018-09-01T04:23:39.841Z,73.51
2018-09-01T04:26:06.936Z,74.01
2018-09-01T04:28:34.072Z,74.00
2018-09-01T04:31:01.217Z,72.66
2018-09-01T04:33:28.394Z,71.74
2018-09-01T04:35:55.538Z,71.55
2018-09-01T04:38:22.697Z,71.32
2018-09-01T04:40:49.884Z,71.40
2018-09-01T04:43:17.070Z,71.96
2018-09-01T04:45:44.256Z,72.24
2018-09-01T04:48:11.984Z,71.93
2018-09-01T04:50:39.303Z,72.00
2018-09-01T04:53:06.532Z,71.83
2018-09-01T04:55:33.911Z,71.82
2018-09-01T04:58:01.067Z,71.79
2018-09-01T05:00:28.217Z,71.21
2018-09-01T05:02:55.388Z,70.99
2018-09-01T05:05:22.535Z,70.78
2018-09-01T05:07:49.658Z,71.18
2018-09-01T05:10:17.754Z,71.93
2018-09-01T05:12:44.989Z,71.82
2018-09-01T05:15:12.132Z,71.40
2018-09-01T05:17:39.299Z,71.24
2018-09-01T05:20:06.486Z,71.83
2018-09-01T05:22:33.642Z,70.78
2018-09-01T05:25:00.853Z,71.70
2018-09-01T05:27:28.009Z,71.41
2018-09-01T05:29:55.172Z,71.97
2018-09-01T05:32:22.414Z,71.66
2018-09-01T05:34:49.528Z,71.01
2018-09-01T05:37:16.653Z,71.61
2018-09-01T05:39:43.897Z,71.33
2018-09-01T05:42:11.023Z,71.11
2018-09-01T05:44:38.179Z,70.43
2018-09-01T05:47:05.384Z,71.04
2018-09-01T05:49:32.562Z,70.41
2018-09-01T05:51:59.769Z,70.94
2018-09-01T05:54:27.016Z,70.70
2018-09-01T05:56:54.197Z,71.11
2018-09-01T05:59:21.376Z,71.13
2018-09-01T06:01:48.514Z,70.97
2018-09-01T06:04:15.623Z,70.82
2018-09-01T06:06:42.818Z,71.45
2018-09-01T06:09:10.485Z,72.06
2018-09-01T06:11:37.623Z,72.02
2018-09-01T06:14:05.046Z,71.66
2018-09-01T06:16:32.237Z,71.03
2018-09-01T06:18:59.318Z,70.37
2018-09-01T06:21:26.467Z,70.09
2018-09-01T06:23:53.599Z,69.71
2018-09-01T06:26:20.732Z,70.66
2018-09-01T06:28:51.478Z,70.20
2018-09-01T06:31:19.499Z,70.01
2018-09-01T06:33:46.689Z,69.82
2018-09-01T06:36:14.178Z,69.74
2018-09-01T06:38:41.385Z,70.04
2018-09-01T06:41:08.507Z,69.15
2018-09-01T06:43:35.698Z,68.68
2018-09-01T06:46:02.931Z,68.35
2018-09-01T06:48:30.095Z,68.30
2018-09-01T06:50:57.413Z,68.63
2018-09-01T06:53:24.581Z,67.86
2018-09-01T06:55:52.310Z,68.29
2018-09-01T06:58:22.077Z,68.57
2018-09-01T07:00:50.522Z,68.25
2018-09-01T07:03:17.678Z,67.86
2018-09-01T07:05:44.810Z,68.76
2018-09-01T07:08:11.982Z,68.05
2018-09-01T07:10:39.116Z,68.49
2018-09-01T07:13:06.261Z,67.87
2018-09-01T07:15:33.468Z,67.52
2018-09-01T07:18:00.662Z,67.51
2018-09-01T07:20:27.845Z,67.23
2018-09-01T07:22:55.010Z,66.49
2018-09-01T07:25:22.113Z,66.62
2018-09-01T07:27:49.263Z,65.74
2018-09-01T07:30:16.525Z,64.62
2018-09-01T07:32:43.622Z,64.58
2018-09-01T07:35:10.761Z,64.80
2018-09-01T07:37:37.929Z,64.17
2018-09-01T07:40:05.158Z,63.80
2018-09-01T07:42:32.370Z,63.87
2018-09-01T07:44:59.637Z,63.14
2018-09-01T07:47:26.993Z,63.07
2018-09-01T07:49:54.788Z,62.49
2018-09-01T07:52:22.024Z,62.19
2018-09-01T07:54:49.215Z,62.00
2018-09-01T07:57:16.541Z,61.70
2018-09-01T07:59:43.834Z,60.53
2018-09-01T08:02:11.035Z,60.22
2018-09-01T08:04:38.286Z,59.60
2018-09-01T08:07:05.433Z,59.74
2018-09-01T08:09:32.617Z,58.74
2018-09-01T08:11:59.728Z,58.67
2018-09-01T08:14:26.940Z,58.04
2018-09-01T08:16:54.085Z,57.83
2018-09-01T08:19:21.316Z,57.69
2018-09-01T08:21:48.844Z,57.16
2018-09-01T08:24:16.209Z,57.51
2018-09-01T08:26:43.396Z,56.91
2018-09-01T08:29:10.533Z,56.20
2018-09-01T08:31:37.689Z,55.37
2018-09-01T08:34:05.041Z,54.98
2018-09-01T08:36:32.179Z,54.14
2018-09-01T08:38:59.292Z,53.00
2018-09-01T08:41:26.519Z,52.77
2018-09-01T08:43:53.700Z,52.20
2018-09-01T08:46:20.894Z,52.20
2018-09-01T08:48:48.056Z,50.07
2018-09-01T08:51:15.222Z,49.76
2018-09-01T08:53:42.454Z,49.41
2018-09-01T08:56:09.677Z,50.11
2018-09-01T08:58:36.799Z,49.40
2018-09-01T09:01:04.017Z,49.12
2018-09-01T09:03:31.591Z,49.19
2018-09-01T09:05:58.783Z,48.37
2018-09-01T09:08:25.972Z,47.62
2018-09-01T09:10:53.151Z,48.63
2018-09-01T09:13:20.335Z,48.03
2018-09-01T09:15:47.466Z,47.85
2018-09-01T09:18:14.701Z,47.41
2018-09-01T09:20:42.021Z,47.88
2018-09-01T09:23:09.205Z,47.25
2018-09-01T09:25:36.330Z,46.62
2018-09-01T09:28:03.474Z,45.96
2018-09-01T09:30:30.620Z,46.51
2018-09-01T09:32:57.853Z,44.98
2018-09-01T09:35:24.978Z,45.95
2018-09-01T09:37:52.246Z,45.21
2018-09-01T09:40:19.505Z,45.06
2018-09-01T09:42:46.631Z,42.85
2018-09-01T09:45:13.778Z,43.43
2018-09-01T09:47:40.900Z,43.92
2018-09-01T09:50:08.041Z,40.23
2018-09-01T09:52:35.176Z,41.36
2018-09-01T09:55:02.364Z,41.53
2018-09-01T09:57:29.530Z,41.15
2018-09-01T09:59:56.698Z,41.29
2018-09-01T10:02:23.865Z,41.02
2018-09-01T10:04:51.001Z,40.53
2018-09-01T10:07:18.181Z,42.16
2018-09-01T10:09:45.320Z,40.45
2018-09-01T10:12:12.550Z,40.64
2018-09-01T10:14:39.776Z,40.18
2018-09-01T10:17:06.911Z,39.90
2018-09-01T10:19:34.078Z,39.36
2018-09-01T10:22:01.268Z,39.07
2018-09-01T10:24:28.575Z,39.80
2018-09-01T10:26:55.801Z,40.09
2018-09-01T10:29:22.962Z,38.08
2018-09-01T10:31:50.125Z,37.60
2018-09-01T10:34:17.292Z,36.56
2018-09-01T10:36:44.497Z,37.52
2018-09-01T10:39:11.674Z,36.56
2018-09-01T10:41:38.894Z,36.12
2018-09-01T10:44:06.997Z,35.21
2018-09-01T10:46:34.215Z,35.27
2018-09-01T10:49:01.350Z,36.59
2018-09-01T10:51:28.505Z,36.95
2018-09-01T10:53:55.639Z,37.48
2018-09-01T10:56:22.789Z,37.42
2018-09-01T10:58:49.963Z,36.83
2018-09-01T11:01:17.945Z,38.17
2018-09-01T11:03:45.067Z,38.70
2018-09-01T11:06:12.305Z,40.14
2018-09-01T11:08:39.567Z,40.63
2018-09-01T11:11:06.669Z,40.81
2018-09-01T11:13:33.770Z,41.36
2018-09-01T11:16:00.934Z,39.86
2018-09-01T11:18:28.714Z,39.83
2018-09-01T11:20:55.928Z,39.64
2018-09-01T11:23:23.030Z,39.03
2018-09-01T11:25:50.118Z,37.62
2018-09-01T11:28:17.255Z,37.87
2018-09-01T11:30:44.402Z,37.60
2018-09-01T11:33:11.530Z,37.96
2018-09-01T11:35:38.771Z,39.01
2018-09-01T11:38:07.370Z,38.73
2018-09-01T11:40:34.696Z,37.80
2018-09-01T11:43:02.436Z,38.07
2018-09-01T11:45:29.471Z,37.71
2018-09-01T11:47:56.737Z,38.26
2018-09-01T11:50:23.876Z,38.29
2018-09-01T11:52:51.118Z,37.42
2018-09-01T11:55:18.227Z,37.24
2018-09-01T11:57:45.376Z,37.01
2018-09-01T12:00:12.539Z,36.42
2018-09-01T12:02:39.643Z,36.99
2018-09-01T12:05:06.774Z,35.94
2018-09-01T12:07:33.975Z,36.31
2018-09-01T12:10:01.286Z,36.16
2018-09-01T12:12:29.051Z,35.22
2018-09-01T12:14:56.236Z,33.69
2018-09-01T12:17:23.349Z,32.54
2018-09-01T12:19:50.582Z,33.46
2018-09-01T12:22:19.721Z,33.09
2018-09-01T12:24:46.821Z,32.30
2018-09-01T12:27:13.997Z,31.80
2018-09-01T12:29:41.270Z,31.19
2018-09-01T12:32:08.406Z,31.68
2018-09-01T12:34:35.602Z,31.83
2018-09-01T12:37:02.699Z,30.78
2018-09-01T12:39:29.854Z,31.26
2018-09-01T12:41:57.047Z,30.16
2018-09-01T12:44:24.187Z,31.21
2018-09-01T12:46:51.342Z,32.34
2018-09-01T12:49:18.465Z,32.47
2018-09-01T12:51:45.630Z,32.07
2018-09-01T12:54:13.034Z,32.00
2018-09-01T12:56:40.789Z,32.40
2018-09-01T12:59:07.968Z,31.37
2018-09-01T13:01:35.519Z,30.17
2018-09-01T13:04:02.677Z,30.74
2018-09-01T13:06:29.872Z,30.52
2018-09-01T13:08:57.039Z,29.25
2018-09-01T13:11:24.445Z,29.07
2018-09-01T13:13:51.649Z,28.99
2018-09-01T13:16:18.803Z,28.33
2018-09-01T13:18:45.937Z,29.15
2018-09-01T13:21:13.039Z,29.85
2018-09-01T13:23:40.491Z,29.40
2018-09-01T13:26:07.652Z,29.00
2018-09-01T13:28:34.934Z,29.22
2018-09-01T13:31:02.083Z,28.29
2018-09-01T13:33:29.229Z,28.82
2018-09-01T13:35:57.821Z,27.99
2018-09-01T13:38:25.118Z,27.86
2018-09-01T13:40:52.326Z,27.61
2018-09-01T13:43:19.453Z,27.20
2018-09-01T13:45:46.620Z,27.34
2018-09-01T13:48:13.792Z,27.06
2018-09-01T13:50:40.935Z,27.72
2018-09-01T13:53:08.079Z,28.82
2018-09-01T13:55:35.691Z,28.40
2018-09-01T13:58:04.408Z,27.66
2018-09-01T14:00:31.709Z,28.37
2018-09-01T14:02:58.881Z,28.75
2018-09-01T14:05:26.083Z,28.57
2018-09-01T14:07:53.446Z,28.75
2018-09-01T14:10:20.606Z,27.00
2018-09-01T14:12:47.871Z,26.48
2018-09-01T14:15:15.042Z,26.74
2018-09-01T14:17:42.182Z,27.15
2018-09-01T14:20:09.359Z,27.49
2018-09-01T14:22:36.951Z,28.59
2018-09-01T14:25:05.131Z,27.71
2018-09-01T14:27:32.254Z,26.52
2018-09-01T14:29:59.401Z,26.64
2018-09-01T14:32:26.506Z,27.14
2018-09-01T14:34:53.994Z,28.49
2018-09-01T14:37:21.159Z,28.90
2018-09-01T14:39:48.358Z,27.98
2018-09-01T14:42:15.523Z,27.11
2018-09-01T14:44:42.716Z,26.59
2018-09-01T14:47:09.882Z,27.10
2018-09-01T14:49:37.106Z,27.32
2018-09-01T14:52:04.283Z,28.89
2018-09-01T14:54:31.501Z,27.93
2018-09-01T14:56:58.606Z,28.11
2018-09-01T14:59:25.747Z,27.92
2018-09-01T15:01:52.910Z,27.37
2018-09-01T15:04:20.016Z,26.77
2018-09-01T15:06:47.218Z,26.93
2018-09-01T15:09:14.362Z,26.82
2018-09-01T15:11:41.655Z,25.38
2018-09-01T15:14:09.725Z,27.60
2018-09-01T15:16:36.885Z,28.62
2018-09-01T15:19:04.087Z,28.94
2018-09-01T15:21:31.232Z,28.17
2018-09-01T15:23:58.362Z,29.46
2018-09-01T15:26:25.602Z,28.33
2018-09-01T15:28:54.230Z,27.61
2018-09-01T15:31:21.617Z,26.83
2018-09-01T15:33:48.743Z,26.66
2018-09-01T15:36:16.458Z,26.53
2018-09-01T15:38:43.622Z,27.22
2018-09-01T15:41:11.607Z,28.46
2018-09-01T15:43:38.892Z,28.76
2018-09-01T15:46:06.297Z,28.29
2018-09-01T15:48:33.522Z,28.24
2018-09-01T15:51:00.702Z,27.11
2018-09-01T15:53:27.932Z,27.74
2018-09-01T15:55:55.141Z,27.55
2018-09-01T15:58:22.269Z,27.23
2018-09-01T16:00:49.463Z,28.38
2018-09-01T16:03:16.646Z,28.76
2018-09-01T16:05:43.763Z,28.80
2018-09-01T16:08:10.906Z,28.87
2018-09-01T16:10:38.055Z,29.22
2018-09-01T16:13:05.522Z,29.74
2018-09-01T16:15:32.768Z,31.37
2018-09-01T16:17:59.925Z,31.35
2018-09-01T16:20:27.118Z,30.88
2018-09-01T16:22:54.413Z,30.35
2018-09-01T16:25:21.529Z,28.34
2018-09-01T16:27:48.786Z,28.14
2018-09-01T16:30:15.900Z,26.47
2018-09-01T16:32:43.061Z,26.95
2018-09-01T16:35:10.207Z,25.84
2018-09-01T16:37:37.373Z,26.37
2018-09-01T16:40:05.185Z,26.39
2018-09-01T16:42:32.302Z,25.76
2018-09-01T16:44:59.428Z,27.35
2018-09-01T16:47:26.510Z,27.35
2018-09-01T16:49:53.677Z,28.09
2018-09-01T16:52:20.776Z,28.82
2018-09-01T16:54:47.915Z,29.23
2018-09-01T16:57:15.138Z,29.98
2018-09-01T16:59:42.319Z,29.74
2018-09-01T17:02:09.448Z,28.25
2018-09-01T17:04:36.571Z,29.03
2018-09-01T17:07:03.990Z,28.42
2018-09-01T17:09:31.140Z,28.35
2018-09-01T17:11:59.135Z,27.99
2018-09-01T17:14:26.809Z,26.93
2018-09-01T17:16:54.293Z,27.82
2018-09-01T17:19:21.394Z,28.31
2018-09-01T17:21:48.583Z,27.98
2018-09-01T17:24:15.722Z,28.67
2018-09-01T17:26:43.264Z,28.81
2018-09-01T17:29:10.356Z,30.43
2018-09-01T17:31:37.574Z,31.13
2018-09-01T17:34:04.715Z,31.29
2018-09-01T17:36:31.909Z,30.71
2018-09-01T17:38:59.039Z,31.08
2018-09-01T17:41:26.246Z,31.27
2018-09-01T17:43:53.328Z,32.50
2018-09-01T17:46:20.470Z,33.06
2018-09-01T17:48:47.602Z,33.63
2018-09-01T17:51:14.805Z,33.68
2018-09-01T17:53:41.985Z,32.83
2018-09-01T17:56:09.097Z,33.76
2018-09-01T17:58:36.280Z,34.13
2018-09-01T18:01:03.382Z,34.35
2018-09-01T18:03:30.558Z,34.16
2018-09-01T18:05:57.676Z,33.63
2018-09-01T18:08:24.800Z,34.36
2018-09-01T18:10:52.003Z,33.50
2018-09-01T18:13:19.082Z,34.11
2018-09-01T18:15:46.225Z,33.58
2018-09-01T18:18:14.835Z,35.44
2018-09-01T18:20:42.263Z,35.29
2018-09-01T18:23:09.476Z,35.27
2018-09-01T18:25:36.536Z,36.06
2018-09-01T18:28:03.821Z,35.21
2018-09-01T18:30:30.946Z,35.57
2018-09-01T18:32:58.099Z,35.97
2018-09-01T18:35:25.386Z,35.94
2018-09-01T18:37:52.433Z,35.88
2018-09-01T18:40:19.593Z,36.48
2018-09-01T18:42:46.860Z,37.31
2018-09-01T18:45:14.969Z,38.69
2018-09-01T18:47:42.406Z,39.23
2018-09-01T18:50:10.448Z,40.04
2018-09-01T18:52:37.694Z,41.10
2018-09-01T18:55:07.311Z,41.43
2018-09-01T18:57:34.470Z,41.36
2018-09-01T19:00:01.667Z,41.02
2018-09-01T19:02:28.914Z,42.07
2018-09-01T19:04:56.165Z,42.77
2018-09-01T19:07:23.233Z,41.82
2018-09-01T19:09:50.382Z,43.30
2018-09-01T19:12:17.528Z,43.40
2018-09-01T19:14:44.793Z,43.45
2018-09-01T19:17:12.012Z,44.33
2018-09-01T19:19:39.345Z,43.75
2018-09-01T19:22:06.502Z,43.47
2018-09-01T19:24:33.692Z,43.48
2018-09-01T19:27:01.531Z,44.38
2018-09-01T19:29:28.674Z,44.77
2018-09-01T19:31:55.906Z,43.92
2018-09-01T19:34:23.109Z,44.19
2018-09-01T19:36:50.294Z,44.32
2018-09-01T19:39:17.430Z,44.80
2018-09-01T19:41:44.589Z,45.10
2018-09-01T19:44:11.709Z,45.92
2018-09-01T19:46:39.779Z,45.38
2018-09-01T19:49:07.198Z,45.67
2018-09-01T19:51:34.471Z,46.03
2018-09-01T19:54:01.657Z,46.19
2018-09-01T19:56:28.799Z,46.79
2018-09-01T19:58:56.971Z,47.54
2018-09-01T20:01:24.351Z,47.87
2018-09-01T20:03:51.516Z,47.38
2018-09-01T20:06:18.689Z,47.83
2018-09-01T20:08:45.790Z,48.67
2018-09-01T20:11:12.926Z,48.05
2018-09-01T20:13:40.117Z,48.71
2018-09-01T20:16:07.288Z,48.76
2018-09-01T20:18:34.394Z,49.38
2018-09-01T20:21:01.589Z,48.60
2018-09-01T20:23:28.820Z,48.82
2018-09-01T20:25:55.922Z,49.48
2018-09-01T20:28:23.078Z,49.28
2018-09-01T20:30:50.237Z,49.36
2018-09-01T20:33:17.393Z,49.13
2018-09-01T20:35:50.246Z,49.76
2018-09-01T20:38:17.417Z,49.91
2018-09-01T20:40:44.556Z,50.41
2018-09-01T20:43:11.670Z,50.39
2018-09-01T20:45:38.825Z,50.84
2018-09-01T20:48:06.071Z,50.92
2018-09-01T20:50:33.188Z,51.08
2018-09-01T20:53:00.324Z,50.90
2018-09-01T20:55:27.459Z,50.73
2018-09-01T20:57:54.648Z,51.17
2018-09-01T21:00:23.903Z,51.15
2018-09-01T21:02:51.051Z,51.39
2018-09-01T21:05:18.218Z,52.29
2018-09-01T21:07:45.345Z,53.05
2018-09-01T21:10:12.474Z,53.41
2018-09-01T21:12:39.651Z,53.32
2018-09-01T21:15:06.797Z,53.09
2018-09-01T21:17:33.922Z,52.85
2018-09-01T21:20:01.046Z,52.99
2018-09-01T21:22:28.247Z,53.90
2018-09-01T21:24:55.374Z,53.71
2018-09-01T21:27:22.501Z,54.63
2018-09-01T21:29:49.638Z,54.82
2018-09-01T21:32:16.769Z,54.73
2018-09-01T21:34:44.150Z,54.66
2018-09-01T21:37:11.245Z,55.26
2018-09-01T21:39:38.426Z,55.56
2018-09-01T21:42:05.586Z,55.90
2018-09-01T21:44:32.718Z,55.63
2018-09-01T21:46:59.834Z,55.53
2018-09-01T21:49:27.133Z,55.78
2018-09-01T21:51:54.350Z,55.33
2018-09-01T21:54:21.455Z,55.16
2018-09-01T21:56:48.645Z,55.98
2018-09-01T21:59:15.771Z,56.18
2018-09-01T22:01:47.521Z,56.33
2018-09-01T22:04:14.627Z,56.19
2018-09-01T22:06:41.954Z,56.99
2018-09-01T22:09:10.738Z,56.59
2018-09-01T22:11:37.903Z,57.04
2018-09-01T22:14:05.027Z,57.18
2018-09-01T22:16:32.282Z,57.20
2018-09-01T22:18:59.429Z,56.68
2018-09-01T22:21:26.610Z,56.87
2018-09-01T22:23:54.145Z,57.21
2018-09-01T22:26:21.321Z,57.40
2018-09-01T22:28:48.502Z,58.25
2018-09-01T22:31:15.730Z,58.41
2018-09-01T22:33:42.834Z,58.96
2018-09-01T22:36:10.027Z,58.75
2018-09-01T22:38:37.293Z,58.79
2018-09-01T22:41:04.467Z,58.27
2018-09-01T22:43:31.724Z,59.17
2018-09-01T22:45:58.849Z,58.29
2018-09-01T22:48:26.025Z,58.49
2018-09-01T22:50:53.194Z,59.01
2018-09-01T22:53:20.354Z,59.17
2018-09-01T22:55:47.941Z,59.89
2018-09-01T22:58:15.261Z,59.53
2018-09-01T23:00:42.429Z,59.83
2018-09-01T23:03:09.559Z,60.16
2018-09-01T23:05:36.646Z,59.93
2018-09-01T23:08:03.916Z,60.69
2018-09-01T23:10:31.057Z,60.67
2018-09-01T23:12:58.170Z,60.43
2018-09-01T23:15:25.266Z,60.72
2018-09-01T23:17:52.398Z,60.69
2018-09-01T23:20:19.494Z,60.46
2018-09-01T23:22:46.680Z,59.94
2018-09-01T23:25:13.946Z,60.23
2018-09-01T23:27:41.075Z,60.57
2018-09-01T23:30:08.269Z,60.96
2018-09-01T23:32:35.397Z,60.06
2018-09-01T23:35:02.507Z,60.74
2018-09-01T23:37:29.859Z,61.39
2018-09-01T23:39:57.005Z,60.82
2018-09-01T23:42:24.137Z,60.68
2018-09-01T23:44:51.269Z,61.57
2018-09-01T23:47:18.389Z,60.68
2018-09-01T23:49:45.558Z,61.76
2018-09-01T23:52:12.825Z,61.01
2018-09-01T23:54:39.942Z,60.94
2018-09-01T23:57:07.046Z,61.45
2018-09-01T23:59:34.211Z,61.07
